メインページ
METAR-TAF:

METAR-TAF

空港 :

Cranbrook, ブリティッシュコロンビア州, カナダ

緯度: 49-37N, 経度: 115-47W, 海抜: 939m

現時点の気象観測

当レポートは12分前の06:24(UTC)に作成
無風
気温 -7°C
湿度 93%
気圧 1010 hPa
視程: 8.0km
高度400ftの千切れ雲あり
高度12000ftの曇り

METAR: CYXC 150624Z 00000KT 5SM BR BKN004 OVC120 M07/M08 A2983 RMK ST6AC2 CIG RAG SLP148

時間: 23:36 (06:36 UTC)

予報

当レポートは2時間38分前の03:58(UTC)に作成
予報は15日の 03時(UTC)から 15日の 13時(UTC)まで有効
変向風 3kt
視程: 0.4km
高度200ftの曇り
着氷性の霧
15日の 03時(UTC)から 15日の 07時(UTC)まで一時的に
視程: 9.7km
高度200ftの雲は散在している
15日の 0700時(UTC)から
の風 3kt
視程: 10km
高度1000ftの千切れ雲あり
高度8000ftの曇り
15日の 07時(UTC)から 15日の 13時(UTC)まで一時的に
視程: 1.6km
高度400ftの曇り
確率 40%
15日の 07時(UTC)から 15日の 13時(UTC)まで
視程: 0.4km
高度100ftの
着氷性の霧

TAF: CYXC 150358Z 1503/1513 VRB03KT 1/4SM FZFG OVC002 TEMPO 1503/1507 6SM BR SCT002 FM150700 18003KT P6SM BKN010 OVC080 TEMPO 1507/1513 1SM BR OVC004 PROB40 1507/1513 1/4SM FZFG VV001 RMK NXT FCST BY 150700Z

4,000以上の空港の気象観測と天気予報(METAR報とTAF報)

利用可能な観測所は地図上に黄色い丸と赤い丸で示す。

丸の上にカーソルを重ねると観測所名を参照できる。

次にクリックすると気象観測と天気予報を参照できる。

マップの切り替え:黒色「×」印の緑ボタンをクリックして拡大、「-」印の緑ボタンをクリックして縮小、緑色の三角印をクリックして隣りの地図に切り替え


METAR-TAF: